createdAt,value
2023-04-09T00:00:42.835Z,21.81
2023-04-09T00:01:42.948Z,21.81
2023-04-09T00:02:43.022Z,21.81
2023-04-09T00:03:43.114Z,21.80
2023-04-09T00:04:43.235Z,21.80
2023-04-09T00:05:43.213Z,21.81
2023-04-09T00:06:43.276Z,21.81
2023-04-09T00:07:44.482Z,21.79
2023-04-09T00:08:43.454Z,21.80
2023-04-09T00:09:43.527Z,21.80
2023-04-09T00:10:43.633Z,21.79
2023-04-09T00:11:43.719Z,21.80
2023-04-09T00:12:43.741Z,21.79
2023-04-09T00:13:43.834Z,21.80
2023-04-09T00:14:43.899Z,21.79
2023-04-09T00:15:44.008Z,21.79
2023-04-09T00:16:44.174Z,21.79
2023-04-09T00:17:44.194Z,21.79
2023-04-09T00:18:44.293Z,21.78
2023-04-09T00:19:44.346Z,21.79
2023-04-09T00:20:44.403Z,21.79
2023-04-09T00:21:44.496Z,21.79
2023-04-09T00:22:44.616Z,21.78
2023-04-09T00:23:44.693Z,21.78
2023-04-09T00:24:44.814Z,21.78
2023-04-09T00:25:44.855Z,21.78
2023-04-09T00:26:44.941Z,21.78
2023-04-09T00:27:44.993Z,21.78
2023-04-09T00:28:45.065Z,21.78
2023-04-09T00:29:45.168Z,21.78
2023-04-09T00:30:45.232Z,21.78
2023-04-09T00:31:45.294Z,21.78
2023-04-09T00:32:45.362Z,21.78
2023-04-09T00:33:45.375Z,21.78
2023-04-09T00:34:45.464Z,21.78
2023-04-09T00:35:45.553Z,21.78
2023-04-09T00:36:45.579Z,21.78
2023-04-09T00:37:45.689Z,21.77
2023-04-09T00:38:45.822Z,21.77
2023-04-09T00:39:45.832Z,21.76
2023-04-09T00:40:45.887Z,21.77
2023-04-09T00:41:45.963Z,21.77
2023-04-09T00:42:46.002Z,21.77
2023-04-09T00:43:46.145Z,21.77
2023-04-09T00:44:46.195Z,21.77
2023-04-09T00:45:46.321Z,21.77
2023-04-09T00:46:46.475Z,21.76
2023-04-09T00:47:46.640Z,21.76
2023-04-09T00:48:46.567Z,21.77
2023-04-09T00:49:46.637Z,21.76
2023-04-09T00:50:46.786Z,21.76
2023-04-09T00:51:46.826Z,21.76
2023-04-09T00:52:46.967Z,21.76
2023-04-09T00:53:47.067Z,21.76
2023-04-09T00:54:47.153Z,21.76
2023-04-09T00:55:47.222Z,21.75
2023-04-09T00:56:47.280Z,21.76
2023-04-09T00:57:47.395Z,21.76
2023-04-09T00:58:47.443Z,21.76
2023-04-09T00:59:47.553Z,21.76
2023-04-09T01:00:47.620Z,21.76
2023-04-09T01:01:47.656Z,21.76
2023-04-09T01:02:47.835Z,21.76
2023-04-09T01:03:47.871Z,21.75
2023-04-09T01:04:47.799Z,21.75
2023-04-09T01:05:47.890Z,21.75
2023-04-09T01:06:47.947Z,21.75
2023-04-09T01:07:48.040Z,21.75
2023-04-09T01:08:48.106Z,21.75
2023-04-09T01:09:48.163Z,21.75
2023-04-09T01:10:48.228Z,21.75
2023-04-09T01:11:48.331Z,21.75
2023-04-09T01:12:49.180Z,21.74
2023-04-09T01:13:48.439Z,21.75
2023-04-09T01:14:48.504Z,21.74
2023-04-09T01:15:48.638Z,21.74
2023-04-09T01:16:48.741Z,21.75
2023-04-09T01:17:48.844Z,21.74
2023-04-09T01:18:48.857Z,21.74
2023-04-09T01:19:48.949Z,21.74
2023-04-09T01:20:49.033Z,21.73
2023-04-09T01:21:49.123Z,21.74
2023-04-09T01:22:49.216Z,21.74
2023-04-09T01:23:49.328Z,21.73
2023-04-09T01:24:49.420Z,21.75
2023-04-09T01:25:49.500Z,21.74
2023-04-09T01:26:49.597Z,21.74
2023-04-09T01:27:49.664Z,21.74
2023-04-09T01:28:49.947Z,21.73
2023-04-09T01:29:49.776Z,21.74
2023-04-09T01:30:49.885Z,21.73
2023-04-09T01:31:49.953Z,21.74
2023-04-09T01:32:50.013Z,21.74
2023-04-09T01:33:50.044Z,21.74
2023-04-09T01:34:50.107Z,21.73
2023-04-09T01:35:50.179Z,21.73
2023-04-09T01:36:50.186Z,21.73
2023-04-09T01:37:50.298Z,21.73
2023-04-09T01:38:50.525Z,21.73
2023-04-09T01:39:50.370Z,21.73
2023-04-09T01:40:50.472Z,21.73
2023-04-09T01:41:50.554Z,21.73
2023-04-09T01:42:50.593Z,21.72
2023-04-09T01:43:50.633Z,21.73
2023-04-09T01:44:50.752Z,21.72
2023-04-09T01:45:50.828Z,21.72
2023-04-09T01:46:50.831Z,21.72
2023-04-09T01:47:50.922Z,21.73
2023-04-09T01:48:51.184Z,21.72
2023-04-09T01:49:51.007Z,21.72
2023-04-09T01:50:51.099Z,21.72
2023-04-09T01:51:51.149Z,21.72
2023-04-09T01:52:51.211Z,21.71
2023-04-09T01:53:51.288Z,21.71
2023-04-09T01:54:51.328Z,21.72
2023-04-09T01:55:51.384Z,21.71
2023-04-09T01:56:51.435Z,21.72
2023-04-09T01:57:51.487Z,21.71
2023-04-09T01:58:51.727Z,21.72
2023-04-09T01:59:51.575Z,21.71
2023-04-09T02:00:51.591Z,21.72
2023-04-09T02:01:51.672Z,21.71
2023-04-09T02:02:51.821Z,21.71
2023-04-09T02:03:51.846Z,21.71
2023-04-09T02:04:51.789Z,21.71
2023-04-09T02:05:51.820Z,21.71
2023-04-09T02:06:51.864Z,21.71
2023-04-09T02:07:51.905Z,21.71
2023-04-09T02:08:52.067Z,21.71
2023-04-09T02:09:52.001Z,21.70
2023-04-09T02:10:52.056Z,21.70
2023-04-09T02:11:52.126Z,21.71
2023-04-09T02:12:52.166Z,21.71
2023-04-09T02:13:52.236Z,21.70
2023-04-09T02:14:52.253Z,21.70
2023-04-09T02:15:52.357Z,21.70
2023-04-09T02:16:52.348Z,21.70
2023-04-09T02:17:52.412Z,21.70
2023-04-09T02:18:52.504Z,21.70
2023-04-09T02:19:52.447Z,21.70
2023-04-09T02:20:52.470Z,21.70
2023-04-09T02:21:52.559Z,21.69
2023-04-09T02:22:52.616Z,21.70
2023-04-09T02:23:52.626Z,21.70
2023-04-09T02:24:52.654Z,21.70
2023-04-09T02:25:52.710Z,21.70
2023-04-09T02:26:52.737Z,21.70
2023-04-09T02:27:52.788Z,21.70
2023-04-09T02:28:53.144Z,21.70
2023-04-09T02:29:52.868Z,21.69
2023-04-09T02:30:53.016Z,21.69
2023-04-09T02:31:52.942Z,21.69
2023-04-09T02:32:53.076Z,21.69
2023-04-09T02:33:53.090Z,21.69
2023-04-09T02:34:53.147Z,21.69
2023-04-09T02:35:53.200Z,21.69
2023-04-09T02:36:53.217Z,21.69
2023-04-09T02:37:53.277Z,21.69
2023-04-09T02:38:53.552Z,21.68
2023-04-09T02:39:53.399Z,21.69
2023-04-09T02:40:53.387Z,21.68
2023-04-09T02:41:53.429Z,21.68
2023-04-09T02:42:53.466Z,21.69
2023-04-09T02:43:53.512Z,21.68
2023-04-09T02:44:53.532Z,21.68
2023-04-09T02:45:53.549Z,21.68
2023-04-09T02:46:53.657Z,21.68
2023-04-09T02:47:53.682Z,21.68
2023-04-09T02:48:53.780Z,21.68
2023-04-09T02:49:53.713Z,21.68
2023-04-09T02:50:53.769Z,21.68
2023-04-09T02:51:53.778Z,21.68
2023-04-09T02:52:53.880Z,21.68
2023-04-09T02:53:53.876Z,21.67
2023-04-09T02:54:53.899Z,21.69
2023-04-09T02:55:54.757Z,21.68
2023-04-09T02:56:54.066Z,21.68
2023-04-09T02:57:54.087Z,21.67
2023-04-09T02:58:54.469Z,21.68
2023-04-09T02:59:54.191Z,21.67
2023-04-09T03:00:54.257Z,21.67
2023-04-09T03:01:54.382Z,21.67
2023-04-09T03:02:54.421Z,21.67
2023-04-09T03:03:54.527Z,21.67
2023-04-09T03:04:54.423Z,21.67
2023-04-09T03:05:54.445Z,21.67
2023-04-09T03:06:54.505Z,21.66
2023-04-09T03:07:54.496Z,21.67
2023-04-09T03:08:54.588Z,21.67
2023-04-09T03:09:54.575Z,21.66
2023-04-09T03:10:54.629Z,21.66
2023-04-09T03:11:54.667Z,21.66
2023-04-09T03:12:54.706Z,21.66
2023-04-09T03:13:54.749Z,21.66
2023-04-09T03:14:54.815Z,21.66
2023-04-09T03:15:54.874Z,21.66
2023-04-09T03:16:54.868Z,21.66
2023-04-09T03:17:54.990Z,21.66
2023-04-09T03:18:55.071Z,21.66
2023-04-09T03:19:54.986Z,21.66
2023-04-09T03:20:55.063Z,21.66
2023-04-09T03:21:55.075Z,21.66
2023-04-09T03:22:55.122Z,21.66
2023-04-09T03:23:55.179Z,21.66
2023-04-09T03:24:55.186Z,21.66
2023-04-09T03:25:55.250Z,21.66
2023-04-09T03:26:55.293Z,21.65
2023-04-09T03:27:55.291Z,21.65
2023-04-09T03:28:55.449Z,21.65
2023-04-09T03:29:55.442Z,21.66
2023-04-09T03:30:55.431Z,21.66
2023-04-09T03:31:55.467Z,21.65
2023-04-09T03:32:55.567Z,21.65
2023-04-09T03:33:55.568Z,21.65
2023-04-09T03:34:55.615Z,21.65
2023-04-09T03:35:55.677Z,21.65
2023-04-09T03:36:55.688Z,21.65
2023-04-09T03:37:55.733Z,21.64
2023-04-09T03:38:55.791Z,21.64
2023-04-09T03:39:55.806Z,21.64
2023-04-09T03:40:55.866Z,21.64
2023-04-09T03:41:55.891Z,21.64
2023-04-09T03:42:55.934Z,21.64
2023-04-09T03:43:55.961Z,21.64
2023-04-09T03:44:56.028Z,21.64
2023-04-09T03:45:56.082Z,21.64
2023-04-09T03:46:56.152Z,21.64
2023-04-09T03:47:57.809Z,21.64
2023-04-09T03:48:56.202Z,21.64
2023-04-09T03:49:56.228Z,21.64
2023-04-09T03:50:56.280Z,21.63
2023-04-09T03:51:56.322Z,21.64
2023-04-09T03:52:56.327Z,21.64
2023-04-09T03:53:56.353Z,21.63
2023-04-09T03:54:56.387Z,21.63
2023-04-09T03:55:56.444Z,21.64
2023-04-09T03:56:56.473Z,21.64
2023-04-09T03:58:48.031Z,21.60
2023-04-09T03:59:48.038Z,21.62
2023-04-09T04:00:48.063Z,21.63
2023-04-09T04:01:48.182Z,21.62
2023-04-09T04:02:48.192Z,21.63
2023-04-09T04:03:48.300Z,21.62
2023-04-09T04:04:48.230Z,21.62
2023-04-09T04:05:48.096Z,21.63
2023-04-09T04:06:48.081Z,21.63
2023-04-09T04:07:48.113Z,21.62
2023-04-09T04:08:48.092Z,21.63
2023-04-09T04:09:48.118Z,21.63
2023-04-09T04:10:48.117Z,21.63
2023-04-09T04:11:48.136Z,21.62
2023-04-09T04:12:48.156Z,21.62
2023-04-09T04:13:48.173Z,21.63
2023-04-09T04:14:48.141Z,21.63
2023-04-09T04:15:48.226Z,21.62
2023-04-09T04:16:48.214Z,21.62
2023-04-09T04:18:48.178Z,21.62
2023-04-09T04:19:48.188Z,21.63
2023-04-09T04:20:48.217Z,21.62
2023-04-09T04:21:48.183Z,21.62
2023-04-09T04:22:48.226Z,21.62
2023-04-09T04:23:48.241Z,21.62
2023-04-09T04:24:48.234Z,21.61
2023-04-09T04:25:48.243Z,21.61
2023-04-09T04:26:48.264Z,21.62
2023-04-09T04:27:48.259Z,21.61
2023-04-09T04:28:48.314Z,21.63
2023-04-09T04:29:48.292Z,21.62
2023-04-09T04:30:48.279Z,21.62
2023-04-09T04:31:48.302Z,21.62
2023-04-09T04:32:48.332Z,21.61
2023-04-09T04:33:48.347Z,21.61
2023-04-09T04:34:48.358Z,21.61
2023-04-09T04:35:48.397Z,21.61
2023-04-09T04:36:48.376Z,21.60
2023-04-09T04:37:48.356Z,21.60
2023-04-09T04:38:48.394Z,21.61
2023-04-09T04:39:48.414Z,21.60
2023-04-09T04:40:48.377Z,21.61
2023-04-09T04:41:48.411Z,21.61
2023-04-09T04:42:48.396Z,21.61
2023-04-09T04:43:48.406Z,21.60
2023-04-09T04:44:48.435Z,21.60
2023-04-09T04:45:48.475Z,21.60
2023-04-09T04:46:48.419Z,21.60
2023-04-09T04:47:48.470Z,21.60
2023-04-09T04:48:48.430Z,21.60
2023-04-09T04:49:48.439Z,21.60
2023-04-09T04:50:48.485Z,21.59
2023-04-09T04:51:48.457Z,21.60
2023-04-09T04:52:48.481Z,21.60
2023-04-09T04:53:48.491Z,21.59
2023-04-09T04:54:48.550Z,21.60
2023-04-09T04:55:48.502Z,21.59
2023-04-09T04:56:48.503Z,21.60
2023-04-09T04:57:48.517Z,21.59
2023-04-09T04:58:48.531Z,21.60
2023-04-09T04:59:48.518Z,21.60
2023-04-09T05:00:48.561Z,21.59
2023-04-09T05:01:48.548Z,21.59
2023-04-09T05:02:48.673Z,21.60
2023-04-09T05:03:48.637Z,21.59
2023-04-09T05:04:48.520Z,21.59
2023-04-09T05:05:48.527Z,21.59
2023-04-09T05:06:48.531Z,21.59
2023-04-09T05:07:48.530Z,21.59
2023-04-09T05:08:48.527Z,21.59
2023-04-09T05:09:48.544Z,21.58
2023-04-09T05:10:48.538Z,21.58
2023-04-09T05:11:48.523Z,21.59
2023-04-09T05:12:48.534Z,21.59
2023-04-09T05:13:48.558Z,21.59
2023-04-09T05:14:48.535Z,21.59
2023-04-09T05:15:48.571Z,21.59
2023-04-09T05:16:48.692Z,21.59
2023-04-09T05:17:48.616Z,21.59
2023-04-09T05:18:48.620Z,21.58
2023-04-09T05:19:48.586Z,21.58
2023-04-09T05:20:48.597Z,21.58
2023-04-09T05:21:48.598Z,21.59
2023-04-09T05:22:48.617Z,21.59
2023-04-09T05:23:48.618Z,21.59
2023-04-09T05:24:48.620Z,21.58
2023-04-09T05:25:48.634Z,21.58
2023-04-09T05:26:48.644Z,21.58
2023-04-09T05:27:48.622Z,21.58
2023-04-09T05:28:48.639Z,21.58
2023-04-09T05:29:48.655Z,21.58
2023-04-09T05:30:48.683Z,21.58
2023-04-09T05:31:48.666Z,21.58
2023-04-09T05:32:48.702Z,21.58
2023-04-09T05:33:48.685Z,21.57
2023-04-09T05:34:48.688Z,21.58
2023-04-09T05:35:48.768Z,21.58
2023-04-09T05:36:48.718Z,21.58
2023-04-09T05:37:48.747Z,21.58
2023-04-09T05:38:48.783Z,21.58
2023-04-09T05:39:48.828Z,21.58
2023-04-09T05:40:48.832Z,21.58
2023-04-09T05:41:48.882Z,21.58
2023-04-09T05:42:48.933Z,21.58
2023-04-09T05:43:48.942Z,21.58
2023-04-09T05:44:48.992Z,21.59
2023-04-09T05:45:49.039Z,21.58
2023-04-09T05:46:49.061Z,21.58
2023-04-09T05:47:49.121Z,21.58
2023-04-09T05:48:49.142Z,21.58
2023-04-09T05:49:49.165Z,21.58
2023-04-09T05:50:55.050Z,21.58
2023-04-09T05:51:50.234Z,21.57
2023-04-09T05:52:49.188Z,21.58
2023-04-09T05:53:49.260Z,21.58
2023-04-09T05:54:49.234Z,21.58
2023-04-09T05:55:49.280Z,21.58
2023-04-09T05:56:49.252Z,21.58
2023-04-09T05:57:49.282Z,21.58
2023-04-09T05:58:49.301Z,21.58
2023-04-09T05:59:49.309Z,21.58
2023-04-09T06:00:49.317Z,21.58
2023-04-09T06:01:49.358Z,21.58
2023-04-09T06:02:49.378Z,21.58
2023-04-09T06:03:49.569Z,21.58
2023-04-09T06:04:49.394Z,21.58
2023-04-09T06:05:49.337Z,21.59
2023-04-09T06:06:49.352Z,21.59
2023-04-09T06:07:49.358Z,21.59
2023-04-09T06:08:49.405Z,21.59
2023-04-09T06:09:49.428Z,21.58
2023-04-09T06:10:49.386Z,21.58
2023-04-09T06:11:49.388Z,21.59
2023-04-09T06:12:49.383Z,21.59
2023-04-09T06:13:49.451Z,21.59
2023-04-09T06:14:49.441Z,21.58
2023-04-09T06:15:49.454Z,21.58
2023-04-09T06:16:49.456Z,21.58
2023-04-09T06:17:49.568Z,21.58
2023-04-09T06:18:49.971Z,21.57
2023-04-09T06:19:49.573Z,21.58
2023-04-09T06:20:49.645Z,21.58
2023-04-09T06:21:49.620Z,21.58
2023-04-09T06:22:49.669Z,21.58
2023-04-09T06:23:49.941Z,21.57
2023-04-09T06:24:49.766Z,21.57
2023-04-09T06:25:49.767Z,21.58
2023-04-09T06:26:49.780Z,21.58
2023-04-09T06:27:49.857Z,21.58
2023-04-09T06:28:49.855Z,21.58
2023-04-09T06:29:49.918Z,21.58
2023-04-09T06:30:49.965Z,21.57
2023-04-09T06:31:49.965Z,21.58
2023-04-09T06:33:51.405Z,21.58
2023-04-09T06:34:50.050Z,21.58
2023-04-09T06:35:50.026Z,21.58
2023-04-09T06:36:50.040Z,21.58
2023-04-09T06:37:50.031Z,21.58
2023-04-09T06:38:50.060Z,21.58
2023-04-09T06:40:00.654Z,21.58
2023-04-09T06:40:51.060Z,21.57
2023-04-09T06:41:50.091Z,21.57
2023-04-09T06:42:50.048Z,21.57
2023-04-09T06:43:50.181Z,21.58
2023-04-09T06:44:50.073Z,21.58
2023-04-09T06:45:50.079Z,21.58
2023-04-09T06:46:50.125Z,21.58
2023-04-09T06:47:50.124Z,21.58
2023-04-09T06:48:50.087Z,21.58
2023-04-09T06:49:50.132Z,21.57
2023-04-09T06:50:50.104Z,21.58
2023-04-09T06:51:50.141Z,21.58
2023-04-09T06:52:50.185Z,21.58
2023-04-09T06:53:50.351Z,21.58
2023-04-09T06:54:50.166Z,21.58
2023-04-09T06:55:50.183Z,21.58
2023-04-09T06:56:50.167Z,21.58
2023-04-09T06:57:50.193Z,21.58
2023-04-09T06:58:50.184Z,21.58
2023-04-09T06:59:50.201Z,21.58
2023-04-09T07:00:50.222Z,21.58
2023-04-09T07:01:52.046Z,21.59
2023-04-09T07:02:50.425Z,21.58
2023-04-09T07:03:50.386Z,21.58
2023-04-09T07:04:50.239Z,21.59
2023-04-09T07:05:50.218Z,21.59
2023-04-09T07:06:50.242Z,21.59
2023-04-09T07:07:50.215Z,21.59
2023-04-09T07:08:50.243Z,21.59
2023-04-09T07:09:50.237Z,21.59
2023-04-09T07:10:50.239Z,21.59
2023-04-09T07:11:50.269Z,21.58
2023-04-09T07:12:50.251Z,21.58
2023-04-09T07:13:50.280Z,21.59
2023-04-09T07:14:50.278Z,21.59
2023-04-09T07:15:50.356Z,21.59
2023-04-09T07:16:50.273Z,21.58
2023-04-09T07:17:50.358Z,21.59
2023-04-09T07:18:50.335Z,21.59
2023-04-09T07:19:50.325Z,21.59
2023-04-09T07:20:50.335Z,21.59
2023-04-09T07:21:50.324Z,21.59
2023-04-09T07:22:50.348Z,21.59
2023-04-09T07:23:50.554Z,21.59
2023-04-09T07:24:50.389Z,21.59
2023-04-09T07:25:50.385Z,21.59
2023-04-09T07:26:52.106Z,21.59
2023-04-09T07:27:50.392Z,21.59
2023-04-09T07:28:50.404Z,21.59
2023-04-09T07:29:50.458Z,21.59
2023-04-09T07:30:50.420Z,21.59
2023-04-09T07:31:50.498Z,21.58
2023-04-09T07:32:50.561Z,21.58
2023-04-09T07:33:51.084Z,21.58
2023-04-09T07:34:50.590Z,21.58
2023-04-09T07:35:50.633Z,21.59
2023-04-09T07:36:50.614Z,21.59
2023-04-09T07:37:50.783Z,21.59
2023-04-09T07:38:50.966Z,21.58
2023-04-09T07:39:50.756Z,21.58
2023-04-09T07:40:50.786Z,21.59
2023-04-09T07:41:50.827Z,21.59
2023-04-09T07:42:50.839Z,21.59
2023-04-09T07:43:50.880Z,21.59
2023-04-09T07:44:50.961Z,21.59
2023-04-09T07:45:50.973Z,21.59
2023-04-09T07:46:51.082Z,21.59
2023-04-09T07:47:51.088Z,21.58
2023-04-09T07:48:51.452Z,21.59
2023-04-09T07:49:51.122Z,21.58
2023-04-09T07:50:51.165Z,21.59
2023-04-09T07:51:51.170Z,21.59
2023-04-09T07:52:51.195Z,21.60
2023-04-09T07:53:51.246Z,21.59
2023-04-09T07:54:51.264Z,21.60
2023-04-09T07:55:51.381Z,21.59
2023-04-09T07:56:51.360Z,21.59
2023-04-09T07:57:51.374Z,21.60
2023-04-09T07:58:51.663Z,21.60
2023-04-09T07:59:51.462Z,21.60
2023-04-09T08:00:51.506Z,21.60
2023-04-09T08:01:51.549Z,21.60
2023-04-09T08:02:51.795Z,21.61
2023-04-09T08:03:51.734Z,21.61
2023-04-09T08:04:51.919Z,21.60
2023-04-09T08:05:51.665Z,21.61
2023-04-09T08:06:51.731Z,21.60
2023-04-09T08:07:51.712Z,21.61
2023-04-09T08:08:52.039Z,21.62
2023-04-09T08:09:51.797Z,21.62
2023-04-09T08:10:51.882Z,21.61
2023-04-09T08:11:51.880Z,21.62
2023-04-09T08:12:51.930Z,21.62
2023-04-09T08:13:52.012Z,21.62
2023-04-09T08:14:51.963Z,21.63
2023-04-09T08:15:51.996Z,21.63
2023-04-09T08:16:52.226Z,21.63
2023-04-09T08:17:52.114Z,21.63
2023-04-09T08:18:52.344Z,21.64
2023-04-09T08:19:52.174Z,21.64
2023-04-09T08:20:52.151Z,21.66
2023-04-09T08:21:52.192Z,21.67
2023-04-09T08:22:52.215Z,21.67
2023-04-09T08:23:52.217Z,21.69
2023-04-09T08:24:52.250Z,21.70
2023-04-09T08:25:52.299Z,21.72
2023-04-09T08:26:52.321Z,21.74
2023-04-09T08:27:52.328Z,21.75
2023-04-09T08:28:52.596Z,21.76
2023-04-09T08:29:52.428Z,21.77
2023-04-09T08:30:52.424Z,21.78
2023-04-09T08:31:52.456Z,21.79
2023-04-09T08:32:52.578Z,21.80
2023-04-09T08:33:52.487Z,21.80
2023-04-09T08:34:52.551Z,21.81
2023-04-09T08:35:52.573Z,21.80
2023-04-09T08:36:52.573Z,21.81
2023-04-09T08:37:52.599Z,21.81
2023-04-09T08:38:52.935Z,21.81
2023-04-09T08:39:52.653Z,21.81
2023-04-09T08:40:52.678Z,21.81
2023-04-09T08:41:52.675Z,21.81
2023-04-09T08:42:52.705Z,21.81
2023-04-09T08:43:58.267Z,21.82
2023-04-09T08:44:53.748Z,21.82
2023-04-09T08:45:52.772Z,21.82
2023-04-09T08:46:52.742Z,21.83
2023-04-09T08:47:52.885Z,21.83
2023-04-09T08:48:53.126Z,21.82
2023-04-09T08:49:52.781Z,21.83
2023-04-09T08:50:52.756Z,21.83
2023-04-09T08:51:52.761Z,21.83
2023-04-09T08:52:52.783Z,21.83
2023-04-09T08:53:52.773Z,21.83
2023-04-09T08:54:52.842Z,21.82
2023-04-09T08:55:52.832Z,21.83
2023-04-09T08:56:52.842Z,21.84
2023-04-09T08:57:52.849Z,21.84
2023-04-09T08:58:53.246Z,21.86
2023-04-09T08:59:52.883Z,21.86
2023-04-09T09:00:52.908Z,21.87
2023-04-09T09:01:52.951Z,21.88
2023-04-09T09:02:52.955Z,21.89
2023-04-09T09:03:52.938Z,21.90
2023-04-09T09:04:52.849Z,21.92
2023-04-09T09:05:52.844Z,21.93
2023-04-09T09:06:54.697Z,21.94
2023-04-09T09:07:53.026Z,21.96
2023-04-09T09:08:53.159Z,21.97
2023-04-09T09:09:53.065Z,21.98
2023-04-09T09:10:53.107Z,21.99
2023-04-09T09:11:53.079Z,22.00
2023-04-09T09:12:53.076Z,22.02
2023-04-09T09:13:53.116Z,22.01
2023-04-09T09:14:53.137Z,22.03
2023-04-09T09:15:53.108Z,22.05
2023-04-09T09:16:53.176Z,22.05
2023-04-09T09:17:53.187Z,22.06
2023-04-09T09:18:54.749Z,22.08
2023-04-09T09:19:53.227Z,22.08
2023-04-09T09:20:53.209Z,22.09
2023-04-09T09:21:53.234Z,22.10
2023-04-09T09:22:55.090Z,22.10
2023-04-09T09:23:53.265Z,22.12
2023-04-09T09:24:53.283Z,22.12
2023-04-09T09:25:53.304Z,22.14
2023-04-09T09:26:53.355Z,22.15
2023-04-09T09:27:53.418Z,22.15
2023-04-09T09:28:53.513Z,22.16
2023-04-09T09:29:53.430Z,22.17
2023-04-09T09:30:53.523Z,22.17
2023-04-09T09:31:53.540Z,22.18
2023-04-09T09:32:53.594Z,22.19
2023-04-09T09:33:53.587Z,22.20
2023-04-09T09:34:53.694Z,22.21
2023-04-09T09:35:54.405Z,22.22
2023-04-09T09:36:53.824Z,22.24
2023-04-09T09:37:53.897Z,22.24
2023-04-09T09:38:54.401Z,22.24
2023-04-09T09:39:54.033Z,22.26
2023-04-09T09:40:54.105Z,22.26
2023-04-09T09:41:54.161Z,22.27
2023-04-09T09:42:54.204Z,22.28
2023-04-09T09:43:54.271Z,22.28
2023-04-09T09:44:54.350Z,22.29
2023-04-09T09:45:54.402Z,22.30
2023-04-09T09:46:54.457Z,22.31
2023-04-09T09:47:54.630Z,22.32
2023-04-09T09:48:54.968Z,22.32
2023-04-09T09:49:54.690Z,22.33
2023-04-09T09:50:54.724Z,22.33
2023-04-09T09:51:54.792Z,22.34
2023-04-09T09:52:54.835Z,22.34
2023-04-09T09:53:54.877Z,22.35
2023-04-09T09:54:54.965Z,22.35
2023-04-09T09:55:55.086Z,22.37
2023-04-09T09:56:55.115Z,22.38
2023-04-09T09:57:55.161Z,22.38
2023-04-09T09:58:55.221Z,22.39
2023-04-09T09:59:55.343Z,22.40
2023-04-09T10:00:55.374Z,22.41
2023-04-09T10:01:55.479Z,22.40
2023-04-09T10:02:55.612Z,22.40
2023-04-09T10:03:55.641Z,22.39
2023-04-09T10:04:55.668Z,22.41
2023-04-09T10:05:55.708Z,22.41
2023-04-09T10:06:55.787Z,22.42
2023-04-09T10:07:55.815Z,22.42
2023-04-09T10:08:55.902Z,22.42
2023-04-09T10:09:55.970Z,22.43
2023-04-09T10:10:56.029Z,22.43
2023-04-09T10:11:56.089Z,22.43
2023-04-09T10:12:56.178Z,22.43
2023-04-09T10:13:56.197Z,22.43
2023-04-09T10:14:56.312Z,22.43
2023-04-09T10:15:56.439Z,22.43
2023-04-09T10:16:56.410Z,22.43
2023-04-09T10:17:56.566Z,22.43
2023-04-09T10:18:56.522Z,22.44
2023-04-09T10:19:56.580Z,22.44
2023-04-09T10:20:56.678Z,22.44
2023-04-09T10:21:56.711Z,22.44
2023-04-09T10:22:56.744Z,22.45
2023-04-09T10:23:56.838Z,22.44
2023-04-09T10:24:56.913Z,22.44
2023-04-09T10:25:56.976Z,22.44
2023-04-09T10:26:57.020Z,22.45
2023-04-09T10:27:57.073Z,22.46
2023-04-09T10:28:57.833Z,22.45
2023-04-09T10:29:57.197Z,22.46
2023-04-09T10:30:57.288Z,22.46
2023-04-09T10:31:57.303Z,22.46
2023-04-09T10:32:57.404Z,22.47
2023-04-09T10:33:57.402Z,22.47
2023-04-09T10:34:57.476Z,22.49
2023-04-09T10:35:57.588Z,22.49
2023-04-09T10:36:57.617Z,22.51
2023-04-09T10:37:57.674Z,22.52
2023-04-09T10:38:57.749Z,22.54
2023-04-09T10:39:57.908Z,22.56
2023-04-09T10:40:57.849Z,22.56
2023-04-09T10:41:57.896Z,22.59
2023-04-09T10:42:57.957Z,22.59
2023-04-09T10:43:58.000Z,22.61
2023-04-09T10:44:58.102Z,22.61
2023-04-09T10:45:58.124Z,22.61
2023-04-09T10:46:58.249Z,22.62
2023-04-09T10:47:58.268Z,22.63
2023-04-09T10:48:58.296Z,22.65
2023-04-09T10:49:58.337Z,22.66
2023-04-09T10:50:58.409Z,22.67
2023-04-09T10:51:58.430Z,22.68
2023-04-09T10:52:58.524Z,22.68
2023-04-09T10:53:58.525Z,22.67
2023-04-09T10:54:58.611Z,22.69
2023-04-09T10:55:58.648Z,22.70
2023-04-09T10:56:58.685Z,22.70
2023-04-09T10:57:58.749Z,22.70
2023-04-09T10:58:58.774Z,22.69
2023-04-09T10:59:58.829Z,22.69
2023-04-09T11:00:58.926Z,22.68
2023-04-09T11:01:59.021Z,22.67
2023-04-09T11:02:58.999Z,22.68
2023-04-09T11:03:59.004Z,22.69
2023-04-09T11:04:59.143Z,22.69
2023-04-09T11:05:59.093Z,22.70
2023-04-09T11:06:59.126Z,22.70
2023-04-09T11:07:59.165Z,22.71
2023-04-09T11:08:59.212Z,22.71
2023-04-09T11:09:59.315Z,22.71
2023-04-09T11:10:59.292Z,22.71
2023-04-09T11:11:59.319Z,22.72
2023-04-09T11:12:59.376Z,22.72
2023-04-09T11:13:59.402Z,22.72
2023-04-09T11:14:59.483Z,22.72
2023-04-09T11:15:59.547Z,22.72
2023-04-09T11:16:59.534Z,22.74
2023-04-09T11:17:59.613Z,22.74
2023-04-09T11:18:59.594Z,22.75
2023-04-09T11:19:59.697Z,22.74
2023-04-09T11:20:59.698Z,22.77
2023-04-09T11:21:59.752Z,22.77
2023-04-09T11:22:59.775Z,22.77
2023-04-09T11:23:59.845Z,22.78
2023-04-09T11:24:59.852Z,22.77
2023-04-09T11:25:59.893Z,22.78
2023-04-09T11:26:59.948Z,22.78
2023-04-09T11:27:59.983Z,22.78
2023-04-09T11:29:00.030Z,22.78
2023-04-09T11:30:00.140Z,22.78
2023-04-09T11:31:00.149Z,22.78
2023-04-09T11:32:00.248Z,22.78
2023-04-09T11:33:00.254Z,22.78
2023-04-09T11:34:00.210Z,22.78
2023-04-09T11:35:00.272Z,22.80
2023-04-09T11:36:00.303Z,22.80
2023-04-09T11:37:00.333Z,22.80
2023-04-09T11:38:00.345Z,22.81
2023-04-09T11:39:00.392Z,22.81
2023-04-09T11:40:00.460Z,22.81
2023-04-09T11:41:00.485Z,22.81
2023-04-09T11:42:00.496Z,22.81
2023-04-09T11:43:00.564Z,22.83
2023-04-09T11:44:00.608Z,22.82
2023-04-09T11:45:00.658Z,22.81
2023-04-09T11:46:00.655Z,22.82
2023-04-09T11:47:00.754Z,22.83
2023-04-09T11:48:00.773Z,22.82
2023-04-09T11:49:00.748Z,22.82
2023-04-09T11:50:00.815Z,22.82
2023-04-09T11:51:00.866Z,22.83
2023-04-09T11:52:00.905Z,22.82
2023-04-09T11:53:00.953Z,22.83
2023-04-09T11:54:00.978Z,22.83
2023-04-09T11:55:00.984Z,22.83
2023-04-09T11:56:01.037Z,22.83
2023-04-09T11:57:01.072Z,22.84
2023-04-09T11:58:01.355Z,22.83
2023-04-09T11:59:01.168Z,22.84
2023-04-09T12:00:02.602Z,22.84
2023-04-09T12:01:01.414Z,22.85
2023-04-09T12:02:01.528Z,22.85
2023-04-09T12:03:01.603Z,22.88
2023-04-09T12:04:01.692Z,22.88
2023-04-09T12:05:01.683Z,22.88
2023-04-09T12:06:01.666Z,22.88
2023-04-09T12:07:01.608Z,22.89
2023-04-09T12:08:01.652Z,22.90
2023-04-09T12:09:01.697Z,22.91
2023-04-09T12:10:01.695Z,22.92
2023-04-09T12:11:01.739Z,22.91
2023-04-09T12:12:01.818Z,22.91
2023-04-09T12:13:01.798Z,22.91
2023-04-09T12:14:01.810Z,22.91
2023-04-09T12:15:01.863Z,22.92
2023-04-09T12:16:01.854Z,22.93
2023-04-09T12:17:01.963Z,22.93
2023-04-09T12:18:01.982Z,22.94
2023-04-09T12:19:01.992Z,22.95
2023-04-09T12:20:02.018Z,22.97
2023-04-09T12:21:02.047Z,22.98
2023-04-09T12:22:02.036Z,23.00
2023-04-09T12:23:02.089Z,23.00
2023-04-09T12:24:02.116Z,22.99
2023-04-09T12:25:02.152Z,22.98
2023-04-09T12:26:02.209Z,22.99
2023-04-09T12:27:02.168Z,22.99
2023-04-09T12:28:02.181Z,22.98
2023-04-09T12:29:02.210Z,22.98
2023-04-09T12:30:02.226Z,22.98
2023-04-09T12:31:02.231Z,22.97
2023-04-09T12:32:02.376Z,22.96
2023-04-09T12:33:02.341Z,22.96
2023-04-09T12:34:02.303Z,22.96
2023-04-09T12:35:02.339Z,22.96
2023-04-09T12:36:02.399Z,22.97
2023-04-09T12:37:02.457Z,22.96
2023-04-09T12:38:02.392Z,22.96
2023-04-09T12:39:02.435Z,22.96
2023-04-09T12:40:02.456Z,22.96
2023-04-09T12:41:02.503Z,22.96
2023-04-09T12:42:02.519Z,22.96
2023-04-09T12:43:02.526Z,22.96
2023-04-09T12:44:02.557Z,22.96
2023-04-09T12:45:02.598Z,22.96
2023-04-09T12:46:02.673Z,22.97
2023-04-09T12:47:02.616Z,22.97
2023-04-09T12:48:02.736Z,22.96
2023-04-09T12:49:02.690Z,22.96
2023-04-09T12:50:02.714Z,22.95
2023-04-09T12:51:02.734Z,22.96
2023-04-09T12:52:02.802Z,22.96
2023-04-09T12:53:02.802Z,22.96
2023-04-09T12:54:02.865Z,22.95
2023-04-09T12:55:02.833Z,22.96
2023-04-09T12:56:02.867Z,22.97